createdAt,value
2024-05-09T00:00:30.391Z,99853.23
2024-05-09T00:02:41.821Z,99851.93
2024-05-09T00:04:46.321Z,99852.33
2024-05-09T00:06:50.928Z,99848.06
2024-05-09T00:08:55.267Z,99856.39
2024-05-09T00:10:59.678Z,99852.88
2024-05-09T00:13:05.576Z,99858.09
2024-05-09T00:15:10.592Z,99856.95
2024-05-09T00:17:16.454Z,99855.32
2024-05-09T00:19:21.171Z,99853.90
2024-05-09T00:21:25.606Z,99851.72
2024-05-09T00:23:29.921Z,99850.52
2024-05-09T00:25:34.201Z,99846.98
2024-05-09T00:27:38.486Z,99842.16
2024-05-09T00:29:42.801Z,99837.55
2024-05-09T00:31:50.091Z,99843.39
2024-05-09T00:33:54.728Z,99839.09
2024-05-09T00:35:59.168Z,99837.26
2024-05-09T00:38:04.061Z,99837.66
2024-05-09T00:40:18.284Z,99837.96
2024-05-09T00:42:27.181Z,99840.55
2024-05-09T00:44:31.633Z,99839.97
2024-05-09T00:46:36.050Z,99838.15
2024-05-09T00:48:41.157Z,99842.02
2024-05-09T00:50:46.588Z,99837.27
2024-05-09T00:52:51.150Z,99835.21
2024-05-09T00:54:58.506Z,99834.70
2024-05-09T00:57:04.502Z,99836.63
2024-05-09T00:59:09.343Z,99843.60
2024-05-09T01:01:13.762Z,99840.20
2024-05-09T01:03:18.871Z,99844.49
2024-05-09T01:05:23.586Z,99836.39
2024-05-09T01:07:28.175Z,99832.71
2024-05-09T01:09:32.506Z,99831.25
2024-05-09T01:11:39.120Z,99832.61
2024-05-09T01:13:46.460Z,99829.59
2024-05-09T01:15:51.045Z,99824.38
2024-05-09T01:17:56.690Z,99826.06
2024-05-09T01:20:01.408Z,99824.67
2024-05-09T01:22:08.611Z,99825.18
2024-05-09T01:24:12.931Z,99827.41
2024-05-09T01:26:17.328Z,99830.59
2024-05-09T01:28:21.662Z,99825.66
2024-05-09T01:30:33.016Z,99832.32
2024-05-09T01:32:39.820Z,99829.06
2024-05-09T01:34:45.340Z,99824.59
2024-05-09T01:36:49.714Z,99828.17
2024-05-09T01:38:54.066Z,99827.27
2024-05-09T01:41:01.573Z,99829.52
2024-05-09T01:43:06.325Z,99830.73
2024-05-09T01:45:10.821Z,99831.92
2024-05-09T01:47:15.282Z,99836.45
2024-05-09T01:49:20.153Z,99832.51
2024-05-09T01:51:24.654Z,99836.70
2024-05-09T01:53:29.043Z,99833.24
2024-05-09T01:55:33.390Z,99839.38
2024-05-09T01:57:37.744Z,99834.95
2024-05-09T01:59:42.080Z,99831.04
2024-05-09T02:01:56.512Z,99825.31
2024-05-09T02:04:02.614Z,99828.36
2024-05-09T02:06:07.433Z,99829.51
2024-05-09T02:08:15.665Z,99825.98
2024-05-09T02:10:25.986Z,99824.38
2024-05-09T02:12:35.919Z,99830.42
2024-05-09T02:14:40.367Z,99826.35
2024-05-09T02:16:44.775Z,99828.85
2024-05-09T02:18:49.291Z,99829.02
2024-05-09T02:20:54.028Z,99824.86
2024-05-09T02:22:58.407Z,99827.20
2024-05-09T02:25:02.726Z,99830.26
2024-05-09T02:27:07.203Z,99828.65
2024-05-09T02:29:11.566Z,99829.48
2024-05-09T02:31:15.937Z,99833.92
2024-05-09T02:33:20.518Z,99827.98
2024-05-09T02:35:25.815Z,99831.83
2024-05-09T02:37:30.207Z,99833.80
2024-05-09T02:39:35.216Z,99839.59
2024-05-09T02:41:39.911Z,99838.88
2024-05-09T02:43:44.285Z,99839.05
2024-05-09T02:45:48.642Z,99840.30
2024-05-09T02:47:53.222Z,99839.48
2024-05-09T02:49:57.782Z,99839.61
2024-05-09T02:52:05.405Z,99836.57
2024-05-09T02:54:10.810Z,99836.39
2024-05-09T02:56:15.167Z,99838.94
2024-05-09T02:58:19.563Z,99843.92
2024-05-09T03:00:29.930Z,99840.34
2024-05-09T03:02:43.900Z,99846.05
2024-05-09T03:04:49.529Z,99847.61
2024-05-09T03:06:54.005Z,99852.79
2024-05-09T03:08:58.311Z,99855.38
2024-05-09T03:11:02.717Z,99855.01
2024-05-09T03:13:11.178Z,99861.02
2024-05-09T03:15:15.781Z,99870.72
2024-05-09T03:17:20.174Z,99869.67
2024-05-09T03:19:24.666Z,99870.74
2024-05-09T03:21:29.077Z,99872.10
2024-05-09T03:23:33.436Z,99870.34
2024-05-09T03:25:38.118Z,99873.21
2024-05-09T03:27:42.553Z,99874.11
2024-05-09T03:29:46.896Z,99872.14
2024-05-09T03:31:51.392Z,99872.35
2024-05-09T03:33:56.171Z,99874.73
2024-05-09T03:36:00.755Z,99867.22
2024-05-09T03:38:05.393Z,99877.95
2024-05-09T03:40:20.265Z,99881.23
2024-05-09T03:42:27.829Z,99883.48
2024-05-09T03:44:32.222Z,99879.27
2024-05-09T03:46:40.569Z,99877.20
2024-05-09T03:48:44.988Z,99876.29
2024-05-09T03:50:49.470Z,99876.56
2024-05-09T03:52:53.806Z,99876.77
2024-05-09T03:54:58.203Z,99880.45
2024-05-09T03:57:02.668Z,99877.12
2024-05-09T03:59:07.064Z,99881.06
2024-05-09T04:01:11.553Z,99879.48
2024-05-09T04:03:17.237Z,99879.68
2024-05-09T04:05:21.703Z,99879.27
2024-05-09T04:07:26.043Z,99879.48
2024-05-09T04:09:30.383Z,99880.01
2024-05-09T04:11:34.952Z,99883.09
2024-05-09T04:13:39.430Z,99884.73
2024-05-09T04:15:46.694Z,99883.92
2024-05-09T04:17:51.321Z,99885.85
2024-05-09T04:19:56.480Z,99891.82
2024-05-09T04:22:00.730Z,99889.02
2024-05-09T04:24:08.142Z,99890.42
2024-05-09T04:26:12.707Z,99894.51
2024-05-09T04:28:17.042Z,99895.77
2024-05-09T04:30:30.235Z,99892.32
2024-05-09T04:32:40.942Z,99895.55
2024-05-09T04:34:45.787Z,99896.14
2024-05-09T04:36:50.183Z,99895.15
2024-05-09T04:38:54.501Z,99896.11
2024-05-09T04:40:58.990Z,99897.05
2024-05-09T04:43:13.220Z,99896.52
2024-05-09T04:45:17.559Z,99899.09
2024-05-09T04:47:22.066Z,99900.09
2024-05-09T04:49:26.636Z,99895.63
2024-05-09T04:51:31.219Z,99894.81
2024-05-09T04:53:35.588Z,99901.41
2024-05-09T04:55:40.427Z,99900.77
2024-05-09T04:57:48.072Z,99895.83
2024-05-09T04:59:53.316Z,99898.23
2024-05-09T05:01:58.237Z,99899.69
2024-05-09T05:04:02.800Z,99899.79
2024-05-09T05:06:07.334Z,99898.91
2024-05-09T05:08:14.085Z,99898.42
2024-05-09T05:10:25.315Z,99910.30
2024-05-09T05:12:37.107Z,99910.84
2024-05-09T05:14:44.654Z,99913.35
2024-05-09T05:16:49.289Z,99917.99
2024-05-09T05:18:53.779Z,99918.99
2024-05-09T05:20:58.572Z,99918.09
2024-05-09T05:23:03.169Z,99924.07
2024-05-09T05:25:08.252Z,99920.71
2024-05-09T05:27:12.639Z,99919.81
2024-05-09T05:29:20.205Z,99920.35
2024-05-09T05:31:28.063Z,99924.30
2024-05-09T05:33:32.725Z,99929.99
2024-05-09T05:35:37.423Z,99927.48
2024-05-09T05:37:44.668Z,99935.39
2024-05-09T05:39:49.021Z,99932.39
2024-05-09T05:41:53.323Z,99941.95
2024-05-09T05:43:57.694Z,99940.66
2024-05-09T05:46:02.050Z,99939.85
2024-05-09T05:48:08.061Z,99932.88
2024-05-09T05:50:23.645Z,99934.73
2024-05-09T05:52:32.173Z,99940.52
2024-05-09T05:54:36.458Z,99934.39
2024-05-09T05:56:40.905Z,99932.23
2024-05-09T05:58:45.364Z,99929.17
2024-05-09T06:00:50.456Z,99935.63
2024-05-09T06:02:54.981Z,99939.30
2024-05-09T06:04:59.503Z,99932.61
2024-05-09T06:07:06.935Z,99934.95
2024-05-09T06:09:11.277Z,99939.50
2024-05-09T06:11:18.732Z,99946.09
2024-05-09T06:13:23.400Z,99942.20
2024-05-09T06:15:27.838Z,99947.76
2024-05-09T06:17:33.614Z,99946.66
2024-05-09T06:19:39.805Z,99951.80
2024-05-09T06:21:44.134Z,99950.77
2024-05-09T06:23:49.043Z,99949.92
2024-05-09T06:25:56.185Z,99960.62
2024-05-09T06:28:03.597Z,99950.73
2024-05-09T06:30:14.442Z,99959.70
2024-05-09T06:32:25.099Z,99961.33
2024-05-09T06:34:32.407Z,99951.86
2024-05-09T06:36:38.075Z,99963.25
2024-05-09T06:38:42.529Z,99959.89
2024-05-09T06:40:46.929Z,99957.25
2024-05-09T06:42:51.336Z,99957.75
2024-05-09T06:44:58.859Z,99956.04
2024-05-09T06:47:03.421Z,99963.00
2024-05-09T06:49:08.053Z,99958.80
2024-05-09T06:51:12.658Z,99959.69
2024-05-09T06:53:20.140Z,99958.33
2024-05-09T06:55:24.592Z,99953.70
2024-05-09T06:57:29.131Z,99960.88
2024-05-09T06:59:33.540Z,99960.16
2024-05-09T07:01:37.968Z,99954.05
2024-05-09T07:03:45.557Z,99952.11
2024-05-09T07:05:50.382Z,99950.31
2024-05-09T07:07:54.832Z,99947.39
2024-05-09T07:09:59.709Z,99956.96
2024-05-09T07:12:10.463Z,99953.98
2024-05-09T07:14:14.925Z,99957.43
2024-05-09T07:16:19.309Z,99951.47
2024-05-09T07:18:26.477Z,99957.68
2024-05-09T07:20:34.625Z,99961.45
2024-05-09T07:22:39.878Z,99955.80
2024-05-09T07:24:47.069Z,99958.18
2024-05-09T07:26:51.351Z,99954.58
2024-05-09T07:28:55.760Z,99962.13
2024-05-09T07:31:00.113Z,99952.60
2024-05-09T07:33:04.995Z,99956.27
2024-05-09T07:35:09.712Z,99960.77
2024-05-09T07:37:15.023Z,99949.84
2024-05-09T07:39:19.471Z,99941.91
2024-05-09T07:41:25.194Z,99946.23
2024-05-09T07:43:32.691Z,99948.88
2024-05-09T07:45:48.354Z,99953.45
2024-05-09T07:49:44.342Z,99955.59
2024-05-09T07:53:32.782Z,99954.92
2024-05-09T07:54:57.500Z,99965.73
2024-05-09T07:57:02.117Z,99964.20
2024-05-09T07:59:06.604Z,99949.88
2024-05-09T08:01:11.164Z,99960.14
2024-05-09T08:03:15.715Z,99950.64
2024-05-09T08:05:20.208Z,99956.40
2024-05-09T08:07:24.726Z,99968.43
2024-05-09T08:09:29.958Z,99962.96
2024-05-09T08:11:34.642Z,99964.95
2024-05-09T08:13:39.068Z,99959.29
2024-05-09T08:15:46.733Z,99953.73
2024-05-09T08:17:51.521Z,99955.08
2024-05-09T08:19:59.119Z,99962.38
2024-05-09T08:22:03.706Z,99955.25
2024-05-09T08:24:08.194Z,99956.38
2024-05-09T08:26:12.672Z,99955.65
2024-05-09T08:28:17.384Z,99947.80
2024-05-09T08:30:29.694Z,99950.10
2024-05-09T08:32:42.196Z,99952.98
2024-05-09T08:34:46.687Z,99950.77
2024-05-09T08:36:51.264Z,99956.51
2024-05-09T08:38:55.606Z,99962.10
2024-05-09T08:41:02.515Z,99956.01
2024-05-09T08:43:10.493Z,99957.16
2024-05-09T08:45:17.379Z,99943.40
2024-05-09T08:47:22.012Z,99954.35
2024-05-09T08:49:27.581Z,99956.52
2024-05-09T08:51:32.330Z,99944.45
2024-05-09T08:53:36.810Z,99950.63
2024-05-09T08:55:43.501Z,99956.14
2024-05-09T08:57:49.496Z,99949.79
2024-05-09T08:59:55.663Z,99943.52
2024-05-09T09:02:01.230Z,99935.08
2024-05-09T09:04:07.894Z,99935.08
2024-05-09T09:06:15.929Z,99940.24
2024-05-09T09:08:22.298Z,99942.38
2024-05-09T09:10:32.343Z,99933.63
2024-05-09T09:12:37.723Z,99938.67
2024-05-09T09:14:42.072Z,99940.45
2024-05-09T09:16:46.455Z,99947.48
2024-05-09T09:18:52.996Z,99940.12
2024-05-09T09:20:59.860Z,99942.14
2024-05-09T09:23:04.977Z,99938.90
2024-05-09T09:25:09.648Z,99937.48
2024-05-09T09:27:16.366Z,99946.10
2024-05-09T09:29:21.450Z,99936.54
2024-05-09T09:31:26.069Z,99931.27
2024-05-09T09:33:30.892Z,99935.71
2024-05-09T09:35:35.688Z,99930.36
2024-05-09T09:37:40.373Z,99923.73
2024-05-09T09:39:49.017Z,99933.90
2024-05-09T09:41:56.072Z,99934.67
2024-05-09T09:44:02.897Z,99933.86
2024-05-09T09:46:12.311Z,99927.95
2024-05-09T09:48:22.853Z,99927.95
2024-05-09T09:50:34.208Z,99936.48
2024-05-09T09:52:40.714Z,99921.55
2024-05-09T09:54:45.426Z,99920.64
2024-05-09T09:56:54.037Z,99930.75
2024-05-09T09:59:00.093Z,99929.02
2024-05-09T10:01:04.860Z,99926.34
2024-05-09T10:03:09.604Z,99932.42
2024-05-09T10:05:14.460Z,99928.65
2024-05-09T10:07:21.199Z,99931.77
2024-05-09T10:09:26.298Z,99927.24
2024-05-09T10:11:37.010Z,99925.44
2024-05-09T10:13:43.996Z,99925.06
2024-05-09T10:15:52.294Z,99927.98
2024-05-09T10:18:05.728Z,99919.91
2024-05-09T10:20:21.337Z,99919.52
2024-05-09T10:22:29.276Z,99916.75
2024-05-09T10:24:51.184Z,99914.33
2024-05-09T10:26:55.769Z,99915.77
2024-05-09T10:29:01.092Z,99914.13
2024-05-09T10:31:08.642Z,99917.65
2024-05-09T10:33:13.502Z,99922.81
2024-05-09T10:35:19.002Z,99917.92
2024-05-09T10:37:24.146Z,99916.04
2024-05-09T10:39:34.380Z,99907.58
2024-05-09T10:41:39.239Z,99900.15
2024-05-09T10:43:46.948Z,99899.31
2024-05-09T10:45:51.514Z,99902.20
2024-05-09T10:48:00.599Z,99906.91
2024-05-09T10:50:18.049Z,99906.39
2024-05-09T10:52:32.486Z,99893.63
2024-05-09T10:54:40.699Z,99893.64
2024-05-09T10:56:45.182Z,99900.04
2024-05-09T10:58:52.400Z,99898.69
2024-05-09T11:00:57.705Z,99896.39
2024-05-09T11:03:05.683Z,99904.85
2024-05-09T11:05:13.235Z,99893.84
2024-05-09T11:07:19.712Z,99891.78
2024-05-09T11:09:24.573Z,99893.61
2024-05-09T11:11:29.252Z,99887.92
2024-05-09T11:13:35.083Z,99889.80
2024-05-09T11:15:42.919Z,99879.55
2024-05-09T11:17:47.642Z,99879.20
2024-05-09T11:19:52.265Z,99878.16
2024-05-09T11:21:56.835Z,99877.98
2024-05-09T11:24:01.819Z,99873.05
2024-05-09T11:26:06.691Z,99880.56
2024-05-09T11:28:12.309Z,99879.57
2024-05-09T11:30:26.998Z,99880.15
2024-05-09T11:32:38.762Z,99874.74
2024-05-09T11:34:44.116Z,99871.71
2024-05-09T11:36:49.822Z,99871.77
2024-05-09T11:38:54.240Z,99865.14
2024-05-09T11:40:58.621Z,99859.46
2024-05-09T11:43:03.962Z,99859.52
2024-05-09T11:45:08.843Z,99851.81
2024-05-09T11:47:13.301Z,99850.50
2024-05-09T11:49:17.841Z,99862.53
2024-05-09T11:51:22.247Z,99847.92
2024-05-09T11:53:26.593Z,99848.59
2024-05-09T11:55:31.076Z,99846.66
2024-05-09T11:57:35.734Z,99840.86
2024-05-09T11:59:40.093Z,99846.10
2024-05-09T12:01:44.585Z,99846.50
2024-05-09T12:03:49.412Z,99852.58
2024-05-09T12:05:54.187Z,99838.02
2024-05-09T12:07:58.633Z,99838.98
2024-05-09T12:10:06.092Z,99842.14
2024-05-09T12:12:12.301Z,99837.23
2024-05-09T12:14:16.727Z,99844.98
2024-05-09T12:16:21.421Z,99846.05
2024-05-09T12:18:25.928Z,99839.92
2024-05-09T12:20:36.599Z,99836.70
2024-05-09T12:22:43.571Z,99840.93
2024-05-09T12:24:50.941Z,99838.27
2024-05-09T12:26:55.591Z,99827.12
2024-05-09T12:28:59.953Z,99837.54
2024-05-09T12:31:04.689Z,99835.66
2024-05-09T12:33:13.268Z,99830.98
2024-05-09T12:35:19.339Z,99839.55
2024-05-09T12:37:23.944Z,99833.80
2024-05-09T12:39:28.486Z,99830.43
2024-05-09T12:41:32.895Z,99815.80
2024-05-09T12:43:37.896Z,99815.78
2024-05-09T12:45:45.301Z,99816.27
2024-05-09T12:47:50.030Z,99805.95
2024-05-09T12:49:54.587Z,99813.48
2024-05-09T12:51:59.071Z,99819.88
2024-05-09T12:54:03.883Z,99811.23
2024-05-09T12:56:09.563Z,99826.54
2024-05-09T12:58:15.302Z,99807.94
2024-05-09T13:00:27.185Z,99808.82
2024-05-09T13:02:35.778Z,99789.19
2024-05-09T13:04:40.463Z,99794.39
2024-05-09T13:06:45.309Z,99794.07
2024-05-09T13:08:49.912Z,99793.46
2024-05-09T13:10:54.348Z,99783.48
2024-05-09T13:12:58.780Z,99776.15
2024-05-09T13:15:03.345Z,99793.57
2024-05-09T13:17:07.820Z,99785.22
2024-05-09T13:19:12.274Z,99791.86
2024-05-09T13:21:16.687Z,99784.75
2024-05-09T13:23:21.074Z,99794.18
2024-05-09T13:25:25.783Z,99791.81
2024-05-09T13:27:30.229Z,99790.27
2024-05-09T13:29:34.642Z,99790.47
2024-05-09T13:31:38.958Z,99776.70
2024-05-09T13:33:46.414Z,99778.54
2024-05-09T13:35:51.274Z,99790.91
2024-05-09T13:37:55.838Z,99776.73
2024-05-09T13:40:00.286Z,99776.84
2024-05-09T13:42:05.260Z,99769.48
2024-05-09T13:44:10.771Z,99771.50
2024-05-09T13:46:15.198Z,99782.94
2024-05-09T13:48:20.792Z,99773.11
2024-05-09T13:50:33.207Z,99767.18
2024-05-09T13:52:40.317Z,99766.00
2024-05-09T13:54:44.694Z,99756.10
2024-05-09T13:56:49.145Z,99755.24
2024-05-09T13:58:53.576Z,99755.73
2024-05-09T14:00:59.389Z,99760.98
2024-05-09T14:03:07.007Z,99756.59
2024-05-09T14:05:11.572Z,99749.84
2024-05-09T14:07:16.189Z,99745.09
2024-05-09T14:09:20.611Z,99753.31
2024-05-09T14:11:25.164Z,99747.80
2024-05-09T14:13:29.841Z,99738.16
2024-05-09T14:15:34.270Z,99743.23
2024-05-09T14:17:38.807Z,99742.67
2024-05-09T14:19:43.322Z,99740.16
2024-05-09T14:21:47.745Z,99736.80
2024-05-09T14:23:52.161Z,99736.35
2024-05-09T14:25:56.660Z,99734.74
2024-05-09T14:28:01.160Z,99728.56
2024-05-09T14:30:11.806Z,99730.98
2024-05-09T14:32:19.423Z,99730.00
2024-05-09T14:34:24.000Z,99729.40
2024-05-09T14:36:28.847Z,99736.31
2024-05-09T14:38:33.352Z,99735.70
2024-05-09T14:40:42.364Z,99727.80
2024-05-09T14:42:48.431Z,99727.73
2024-05-09T14:44:52.772Z,99724.59
2024-05-09T14:46:57.222Z,99725.88
2024-05-09T14:49:01.863Z,99720.89
2024-05-09T14:51:07.005Z,99712.68
2024-05-09T14:53:12.330Z,99721.38
2024-05-09T14:55:17.044Z,99714.47
2024-05-09T14:57:21.507Z,99711.56
2024-05-09T14:59:26.154Z,99709.95
2024-05-09T15:01:31.375Z,99706.43
2024-05-09T15:03:35.923Z,99708.40
2024-05-09T15:05:40.605Z,99710.52
2024-05-09T15:07:45.717Z,99710.13
2024-05-09T15:09:50.153Z,99707.48
2024-05-09T15:11:54.662Z,99709.27
2024-05-09T15:13:59.096Z,99717.02
2024-05-09T15:16:03.636Z,99702.26
2024-05-09T15:18:09.560Z,99698.65
2024-05-09T15:20:17.482Z,99696.98
2024-05-09T15:22:25.571Z,99694.56
2024-05-09T15:24:30.029Z,99694.89
2024-05-09T15:26:34.686Z,99693.84
2024-05-09T15:28:41.350Z,99689.69
2024-05-09T15:30:46.870Z,99690.56
2024-05-09T15:32:51.890Z,99687.77
2024-05-09T15:34:59.368Z,99686.54
2024-05-09T15:37:04.285Z,99700.30
2024-05-09T15:39:08.706Z,99688.83
2024-05-09T15:41:14.063Z,99690.44
2024-05-09T15:43:18.512Z,99686.17
2024-05-09T15:45:22.907Z,99678.41
2024-05-09T15:47:27.428Z,99676.13
2024-05-09T15:49:31.982Z,99678.27
2024-05-09T15:51:36.474Z,99676.89
2024-05-09T15:53:40.982Z,99672.83
2024-05-09T15:55:45.509Z,99676.61
2024-05-09T15:57:50.009Z,99672.02
2024-05-09T15:59:54.541Z,99673.19
2024-05-09T16:01:59.079Z,99679.65
2024-05-09T16:04:03.841Z,99667.13
2024-05-09T16:06:08.294Z,99669.04
2024-05-09T16:08:13.635Z,99672.83
2024-05-09T16:10:23.140Z,99670.86
2024-05-09T16:12:30.447Z,99671.17
2024-05-09T16:14:35.775Z,99671.88
2024-05-09T16:16:40.483Z,99665.45
2024-05-09T16:18:45.043Z,99673.63
2024-05-09T16:20:50.416Z,99676.86
2024-05-09T16:22:54.879Z,99677.55
2024-05-09T16:24:59.315Z,99676.39
2024-05-09T16:27:04.033Z,99665.96
2024-05-09T16:29:08.449Z,99669.00
2024-05-09T16:31:12.961Z,99667.64
2024-05-09T16:33:17.899Z,99669.71
2024-05-09T16:35:22.450Z,99669.88
2024-05-09T16:37:29.551Z,99667.26
2024-05-09T16:39:34.105Z,99682.88
2024-05-09T16:41:38.469Z,99674.39
2024-05-09T16:43:42.785Z,99676.81
2024-05-09T16:45:47.185Z,99672.67
2024-05-09T16:47:51.827Z,99670.95
2024-05-09T16:49:56.264Z,99670.13
2024-05-09T16:52:00.617Z,99668.83
2024-05-09T16:54:04.990Z,99665.70
2024-05-09T16:56:09.486Z,99670.52
2024-05-09T16:58:14.177Z,99670.90
2024-05-09T17:00:30.633Z,99666.73
2024-05-09T17:02:43.062Z,99669.86
2024-05-09T17:04:47.562Z,99674.04
2024-05-09T17:06:52.167Z,99673.38
2024-05-09T17:09:01.849Z,99667.52
2024-05-09T17:11:09.677Z,99668.21
2024-05-09T17:13:14.506Z,99667.45
2024-05-09T17:15:19.046Z,99664.52
2024-05-09T17:17:23.771Z,99670.36
2024-05-09T17:19:28.896Z,99665.73
2024-05-09T17:21:33.427Z,99666.04
2024-05-09T17:23:37.818Z,99668.90
2024-05-09T17:25:42.834Z,99665.40
2024-05-09T17:27:47.265Z,99674.31
2024-05-09T17:29:51.761Z,99670.55
2024-05-09T17:31:56.111Z,99668.77
2024-05-09T17:34:00.775Z,99668.77
2024-05-09T17:36:05.757Z,99668.78
2024-05-09T17:38:10.247Z,99666.67
2024-05-09T17:40:17.330Z,99673.48
2024-05-09T17:42:25.173Z,99666.67
2024-05-09T17:44:29.587Z,99676.34
2024-05-09T17:46:34.040Z,99671.92
2024-05-09T17:48:38.660Z,99672.20
2024-05-09T17:50:43.273Z,99674.25
2024-05-09T17:52:47.776Z,99678.42
2024-05-09T17:54:52.234Z,99678.88
2024-05-09T17:56:56.687Z,99674.73
2024-05-09T17:59:01.003Z,99680.11
2024-05-09T18:01:05.772Z,99676.83
2024-05-09T18:03:10.919Z,99673.91
2024-05-09T18:05:15.977Z,99681.92
2024-05-09T18:07:20.466Z,99680.25
2024-05-09T18:09:24.880Z,99684.58
2024-05-09T18:11:29.205Z,99678.55
2024-05-09T18:13:33.700Z,99682.34
2024-05-09T18:15:38.963Z,99679.37
2024-05-09T18:17:43.800Z,99681.26
2024-05-09T18:19:48.287Z,99683.00
2024-05-09T18:21:53.275Z,99683.70
2024-05-09T18:24:00.224Z,99679.58
2024-05-09T18:26:05.266Z,99679.89
2024-05-09T18:28:10.100Z,99684.25
2024-05-09T18:30:23.798Z,99686.02
2024-05-09T18:32:33.074Z,99684.35
2024-05-09T18:34:37.532Z,99687.38
2024-05-09T18:36:42.979Z,99693.82
2024-05-09T18:38:47.972Z,99691.85
2024-05-09T18:40:52.493Z,99692.34
2024-05-09T18:42:57.689Z,99694.06
2024-05-09T18:45:02.765Z,99694.86
2024-05-09T18:47:07.283Z,99697.60
2024-05-09T18:49:13.055Z,99701.48
2024-05-09T18:51:20.114Z,99702.88
2024-05-09T18:53:26.728Z,99707.61
2024-05-09T18:55:31.244Z,99708.10
2024-05-09T18:57:35.574Z,99712.69
2024-05-09T18:59:40.088Z,99718.58
2024-05-09T19:01:48.918Z,99721.00
2024-05-09T19:03:55.656Z,99719.59
2024-05-09T19:06:03.112Z,99718.45
2024-05-09T19:08:09.330Z,99719.95
2024-05-09T19:10:22.415Z,99722.23
2024-05-09T19:12:31.772Z,99722.80
2024-05-09T19:14:38.055Z,99725.35
2024-05-09T19:16:43.219Z,99727.55
2024-05-09T19:18:48.655Z,99732.16
2024-05-09T19:20:55.242Z,99733.17
2024-05-09T19:23:00.638Z,99738.30
2024-05-09T19:25:05.647Z,99739.90
2024-05-09T19:27:10.572Z,99742.76
2024-05-09T19:29:17.934Z,99746.95
2024-05-09T19:31:29.072Z,99749.52
2024-05-09T19:33:33.644Z,99753.38
2024-05-09T19:35:39.181Z,99754.77
2024-05-09T19:37:45.836Z,99756.92
2024-05-09T19:39:52.874Z,99759.02
2024-05-09T19:41:58.027Z,99759.46
2024-05-09T19:44:03.570Z,99759.19
2024-05-09T19:46:08.763Z,99763.25
2024-05-09T19:48:14.487Z,99765.45
2024-05-09T19:50:27.028Z,99766.15
2024-05-09T19:52:41.530Z,99767.91
2024-05-09T19:54:46.742Z,99768.08
2024-05-09T19:56:52.155Z,99766.09
2024-05-09T19:58:57.508Z,99771.17
2024-05-09T20:01:02.475Z,99769.73
2024-05-09T20:03:08.268Z,99771.59
2024-05-09T20:05:13.390Z,99778.66
2024-05-09T20:07:18.685Z,99772.45
2024-05-09T20:09:24.058Z,99775.58
2024-05-09T20:11:29.587Z,99772.16
2024-05-09T20:13:36.849Z,99773.15
2024-05-09T20:15:44.181Z,99775.58
2024-05-09T20:17:49.525Z,99773.96
2024-05-09T20:19:54.947Z,99776.97
2024-05-09T20:22:00.554Z,99783.20
2024-05-09T20:24:06.467Z,99782.27
2024-05-09T20:26:11.585Z,99780.23
2024-05-09T20:28:20.548Z,99781.84
2024-05-09T20:30:32.301Z,99785.06
2024-05-09T20:32:39.070Z,99788.28
2024-05-09T20:34:48.105Z,99790.94
2024-05-09T20:36:54.200Z,99792.42
2024-05-09T20:39:00.636Z,99790.67
2024-05-09T20:41:10.825Z,99791.52
2024-05-09T20:43:17.075Z,99789.34
2024-05-09T20:45:23.068Z,99791.82
2024-05-09T20:47:30.281Z,99791.77
2024-05-09T20:49:34.823Z,99793.08
2024-05-09T20:51:39.474Z,99792.13
2024-05-09T20:53:43.915Z,99796.59
2024-05-09T20:55:48.467Z,99795.05
2024-05-09T20:57:53.009Z,99798.39
2024-05-09T20:59:57.416Z,99794.42
2024-05-09T21:02:02.049Z,99798.26
2024-05-09T21:04:06.946Z,99798.94
2024-05-09T21:06:11.545Z,99797.45
2024-05-09T21:08:16.053Z,99797.21
2024-05-09T21:10:22.805Z,99799.45
2024-05-09T21:12:27.589Z,99798.52
2024-05-09T21:14:32.022Z,99797.99
2024-05-09T21:16:36.590Z,99797.33
2024-05-09T21:18:41.356Z,99798.34
2024-05-09T21:20:45.978Z,99800.95
2024-05-09T21:22:50.539Z,99805.22
2024-05-09T21:24:55.042Z,99807.63
2024-05-09T21:26:59.650Z,99808.23
2024-05-09T21:29:04.212Z,99812.09
2024-05-09T21:31:09.424Z,99811.34
2024-05-09T21:33:15.019Z,99810.87
2024-05-09T21:35:20.023Z,99809.45
2024-05-09T21:37:24.526Z,99813.95
2024-05-09T21:39:28.928Z,99809.42
2024-05-09T21:41:33.300Z,99811.19
2024-05-09T21:43:38.984Z,99814.91
2024-05-09T21:45:43.525Z,99816.98
2024-05-09T21:47:47.990Z,99816.57
2024-05-09T21:49:52.428Z,99817.59
2024-05-09T21:51:56.789Z,99820.15
2024-05-09T21:54:01.247Z,99819.77
2024-05-09T21:56:06.858Z,99821.13
2024-05-09T21:58:14.341Z,99822.94
2024-05-09T22:00:28.658Z,99817.84
2024-05-09T22:02:41.475Z,99818.98
2024-05-09T22:04:46.055Z,99822.94
2024-05-09T22:06:50.637Z,99823.05
2024-05-09T22:08:55.161Z,99824.27
2024-05-09T22:10:59.492Z,99824.54
2024-05-09T22:13:04.999Z,99827.46
2024-05-09T22:15:09.908Z,99825.05
2024-05-09T22:17:14.280Z,99827.33
2024-05-09T22:19:18.814Z,99831.16
2024-05-09T22:21:23.249Z,99830.43
2024-05-09T22:23:27.712Z,99827.95
2024-05-09T22:25:32.736Z,99833.34
2024-05-09T22:27:37.904Z,99832.30
2024-05-09T22:29:42.244Z,99835.09
2024-05-09T22:31:46.597Z,99838.00
2024-05-09T22:33:51.258Z,99836.73
2024-05-09T22:35:55.721Z,99839.64
2024-05-09T22:38:00.146Z,99839.77
2024-05-09T22:40:06.845Z,99842.58
2024-05-09T22:42:11.426Z,99840.09
2024-05-09T22:44:15.966Z,99838.48
2024-05-09T22:46:20.462Z,99836.34
2024-05-09T22:48:25.730Z,99839.06
2024-05-09T22:50:33.319Z,99839.36
2024-05-09T22:52:38.104Z,99837.06
2024-05-09T22:54:42.590Z,99837.27
2024-05-09T22:56:46.974Z,99838.60
2024-05-09T22:58:51.350Z,99837.79
2024-05-09T23:00:55.833Z,99840.21
2024-05-09T23:03:00.962Z,99837.23
2024-05-09T23:05:06.279Z,99838.86
2024-05-09T23:07:10.881Z,99838.71
2024-05-09T23:09:15.412Z,99839.55
2024-05-09T23:11:19.919Z,99836.93
2024-05-09T23:13:24.394Z,99839.29
2024-05-09T23:15:28.910Z,99837.71
2024-05-09T23:17:33.604Z,99839.55
2024-05-09T23:19:38.358Z,99840.00
2024-05-09T23:21:42.932Z,99838.85
2024-05-09T23:23:47.327Z,99844.19
2024-05-09T23:25:51.769Z,99839.74
2024-05-09T23:27:56.189Z,99839.21
2024-05-09T23:30:00.726Z,99837.85
2024-05-09T23:32:05.665Z,99839.20
2024-05-09T23:34:10.194Z,99834.63
2024-05-09T23:36:14.767Z,99834.41
2024-05-09T23:38:21.779Z,99835.33
2024-05-09T23:40:38.166Z,99831.09
2024-05-09T23:42:44.978Z,99829.81
2024-05-09T23:44:49.335Z,99825.67
2024-05-09T23:46:53.778Z,99830.75
2024-05-09T23:48:58.294Z,99829.33
2024-05-09T23:51:02.786Z,99824.92
2024-05-09T23:53:08.968Z,99824.39
2024-05-09T23:55:14.680Z,99824.84
2024-05-09T23:57:19.045Z,99823.36
2024-05-09T23:59:23.354Z,99823.95
